createdAt,value
2023-05-12T04:49:12.436Z,953.9200
2023-05-12T04:50:13.886Z,953.9215
2023-05-12T04:51:15.405Z,953.9261
2023-05-12T04:52:16.922Z,953.9230
2023-05-12T04:53:18.463Z,953.9300
2023-05-12T04:54:19.940Z,953.9269
2023-05-12T04:55:21.756Z,953.9354
2023-05-12T04:56:23.017Z,953.9454
2023-05-12T04:57:24.506Z,953.9431
2023-05-12T04:58:26.046Z,953.9454
2023-05-12T04:59:27.620Z,953.9500
2023-05-12T05:00:29.057Z,953.9554
2023-05-12T05:01:30.683Z,953.9608
2023-05-12T05:02:32.194Z,953.9585
2023-05-12T05:03:33.641Z,953.9677
2023-05-12T05:04:35.158Z,953.9761
2023-05-12T05:05:36.642Z,953.9900
2023-05-12T05:06:38.190Z,953.9969
2023-05-12T05:07:39.672Z,954.0085
2023-05-12T05:08:41.193Z,954.0108
2023-05-12T05:09:42.715Z,954.0177
2023-05-12T05:10:44.266Z,954.0223
2023-05-12T05:11:45.781Z,954.0277
2023-05-12T05:12:47.336Z,954.0339
2023-05-12T05:13:48.821Z,954.0385
2023-05-12T05:14:50.311Z,954.0377
2023-05-12T05:15:51.877Z,954.0208
2023-05-12T05:16:53.362Z,954.0277
2023-05-12T05:17:54.887Z,954.0292
2023-05-12T05:18:58.154Z,954.0277
2023-05-12T05:19:59.586Z,954.0331
2023-05-12T05:20:59.486Z,954.0385
2023-05-12T05:22:00.926Z,954.0477
2023-05-12T05:23:02.504Z,954.0538
2023-05-12T05:24:03.988Z,954.0515
2023-05-12T05:25:05.526Z,954.0469
2023-05-12T05:26:07.029Z,954.0739
2023-05-12T05:27:08.537Z,954.0723
2023-05-12T05:28:10.057Z,954.0477
2023-05-12T05:29:11.569Z,954.0300
2023-05-12T05:30:13.100Z,954.0231
2023-05-12T05:31:14.635Z,954.0292
2023-05-12T05:32:16.141Z,954.0369
2023-05-12T05:33:17.651Z,954.0408
2023-05-12T05:34:19.220Z,954.0446
2023-05-12T05:35:21.066Z,954.0685
2023-05-12T05:36:22.234Z,954.0785
2023-05-12T05:37:23.764Z,954.0877
2023-05-12T05:38:25.275Z,954.0916
2023-05-12T05:39:26.834Z,954.1038
2023-05-12T05:40:30.568Z,954.0984
2023-05-12T05:41:30.548Z,954.1177
2023-05-12T05:42:31.358Z,954.1230
2023-05-12T05:43:32.873Z,954.1362
2023-05-12T05:44:36.096Z,954.1439
2023-05-12T05:45:35.932Z,954.1508
2023-05-12T05:46:37.531Z,954.1554
2023-05-12T05:47:39.053Z,954.1539
2023-05-12T05:48:40.504Z,954.1569
2023-05-12T05:49:41.981Z,954.1508
2023-05-12T05:50:43.501Z,954.1469
2023-05-12T05:51:45.035Z,954.1447
2023-05-12T05:52:46.564Z,954.1370
2023-05-12T05:53:48.106Z,954.1308
2023-05-12T05:54:49.574Z,954.1208
2023-05-12T05:55:51.094Z,954.1215
2023-05-12T05:56:52.626Z,954.1177
2023-05-12T05:57:54.125Z,954.1177
2023-05-12T05:58:55.663Z,954.1192
2023-05-12T05:59:57.217Z,954.1169
2023-05-12T06:00:58.706Z,954.1230
2023-05-12T06:02:00.338Z,954.1323
2023-05-12T06:03:01.816Z,954.1223
2023-05-12T06:04:03.407Z,954.1238
2023-05-12T06:05:04.786Z,954.1285
2023-05-12T06:06:06.299Z,954.1270
2023-05-12T06:07:07.810Z,954.1215
2023-05-12T06:08:09.316Z,954.1331
2023-05-12T06:09:10.850Z,954.1308
2023-05-12T06:10:12.384Z,954.1262
2023-05-12T06:11:15.301Z,954.1331
2023-05-12T06:12:15.901Z,954.1454
2023-05-12T06:13:17.307Z,954.1561
2023-05-12T06:14:18.428Z,954.1677
2023-05-12T06:15:20.110Z,954.1723
2023-05-12T06:16:21.478Z,954.1715
2023-05-12T06:17:23.028Z,954.1792
2023-05-12T06:18:24.559Z,954.1777
2023-05-12T06:19:26.042Z,954.1808
2023-05-12T06:20:27.561Z,954.1800
2023-05-12T06:21:29.079Z,954.1754
2023-05-12T06:22:30.577Z,954.1685
2023-05-12T06:23:32.106Z,954.1723
2023-05-12T06:24:33.624Z,954.1792
2023-05-12T06:25:35.147Z,954.1823
2023-05-12T06:26:36.671Z,954.1838
2023-05-12T06:27:38.153Z,954.1862
2023-05-12T06:28:39.667Z,954.1923
2023-05-12T06:29:41.211Z,954.2015
2023-05-12T06:30:42.735Z,954.2200
2023-05-12T06:31:44.274Z,954.2323
2023-05-12T06:32:45.866Z,954.2400
2023-05-12T06:33:47.295Z,954.2462
2023-05-12T06:34:48.771Z,954.2577
2023-05-12T06:35:50.319Z,954.2684
2023-05-12T06:36:53.750Z,954.2954
2023-05-12T06:37:53.366Z,954.3146
2023-05-12T06:38:54.887Z,954.3262
2023-05-12T06:39:56.384Z,954.3362
2023-05-12T06:40:57.883Z,954.3354
2023-05-12T06:42:00.239Z,954.3577
2023-05-12T06:43:00.920Z,954.3515
2023-05-12T06:44:02.485Z,954.3585
2023-05-12T06:45:03.952Z,954.3546
2023-05-12T06:46:05.505Z,954.3515
2023-05-12T06:47:06.998Z,954.3400
2023-05-12T06:48:08.569Z,954.3254
2023-05-12T06:49:10.003Z,954.3170
2023-05-12T06:50:11.535Z,954.3023
2023-05-12T06:51:13.046Z,954.2985
2023-05-12T06:52:14.555Z,954.2931
2023-05-12T06:53:16.085Z,954.2946
2023-05-12T06:54:17.600Z,954.3023
2023-05-12T06:55:19.330Z,954.2854
2023-05-12T06:56:20.640Z,954.2931
2023-05-12T06:57:22.135Z,954.3008
2023-05-12T06:58:23.676Z,954.3115
2023-05-12T06:59:25.226Z,954.3208
2023-05-12T07:00:26.719Z,954.3154
2023-05-12T07:01:28.254Z,954.3162
2023-05-12T07:02:29.769Z,954.3130
2023-05-12T07:03:31.278Z,954.3146
2023-05-12T07:04:32.744Z,954.3223
2023-05-12T07:05:34.316Z,954.3138
2023-05-12T07:06:35.803Z,954.3130
2023-05-12T07:07:37.315Z,954.2961
2023-05-12T07:08:38.822Z,954.2816
2023-05-12T07:09:40.339Z,954.2708
2023-05-12T07:10:41.851Z,954.2631
2023-05-12T07:11:43.457Z,954.2392
2023-05-12T07:12:44.901Z,954.2246
2023-05-12T07:13:46.389Z,954.2200
2023-05-12T07:14:47.902Z,954.2161
2023-05-12T07:15:49.464Z,954.2238
2023-05-12T07:16:50.951Z,954.2423
2023-05-12T07:17:52.488Z,954.2523
2023-05-12T07:18:54.040Z,954.2531
2023-05-12T07:19:55.482Z,954.2639
2023-05-12T07:20:57.024Z,954.2654
2023-05-12T07:21:58.520Z,954.2808
2023-05-12T07:23:00.056Z,954.2831
2023-05-12T07:24:01.539Z,954.2985
2023-05-12T07:25:03.096Z,954.3030
2023-05-12T07:26:04.599Z,954.2977
2023-05-12T07:27:06.095Z,954.3069
2023-05-12T07:28:07.648Z,954.3108
2023-05-12T07:29:09.751Z,954.2946
2023-05-12T07:30:10.632Z,954.2662
2023-05-12T07:31:12.188Z,954.2469
2023-05-12T07:32:13.656Z,954.2085
2023-05-12T07:33:15.203Z,954.1946
2023-05-12T07:34:16.708Z,954.1962
2023-05-12T07:35:18.426Z,954.2008
2023-05-12T07:36:21.870Z,954.2031
2023-05-12T07:37:21.242Z,954.1977
2023-05-12T07:38:22.768Z,954.2000
2023-05-12T07:39:24.287Z,954.1962
2023-05-12T07:40:25.894Z,954.1830
2023-05-12T07:41:27.354Z,954.1815
2023-05-12T07:42:28.866Z,954.1761
2023-05-12T07:43:30.352Z,954.1669
2023-05-12T07:44:31.871Z,954.1447
2023-05-12T07:45:33.384Z,954.1431
2023-05-12T07:46:34.948Z,954.1300
2023-05-12T07:47:36.509Z,954.1323
2023-05-12T07:48:37.937Z,954.1177
2023-05-12T07:49:39.452Z,954.1362
2023-05-12T07:50:40.946Z,954.1754
2023-05-12T07:51:42.476Z,954.1539
2023-05-12T07:52:44.009Z,954.1215
2023-05-12T07:53:45.520Z,954.1046
2023-05-12T07:54:47.015Z,954.0984
2023-05-12T07:55:48.516Z,954.0908
2023-05-12T07:56:50.041Z,954.0823
2023-05-12T07:57:51.577Z,954.0746
2023-05-12T07:58:53.119Z,954.0662
2023-05-12T07:59:54.605Z,954.0592
2023-05-12T08:00:56.094Z,954.0523
2023-05-12T08:01:57.694Z,954.0385
2023-05-12T08:02:59.353Z,954.0269
2023-05-12T08:04:00.794Z,954.0177
2023-05-12T08:05:02.194Z,954.0162
2023-05-12T08:06:03.689Z,954.0185
2023-05-12T08:07:05.220Z,954.0215
2023-05-12T08:08:06.706Z,954.0231
2023-05-12T08:09:08.261Z,954.0154
2023-05-12T08:10:09.765Z,954.0100
2023-05-12T08:11:12.086Z,954.0215
2023-05-12T08:12:12.778Z,954.0546
2023-05-12T08:13:14.299Z,954.0423
2023-05-12T08:14:15.806Z,954.0438
2023-05-12T08:15:17.337Z,954.0431
2023-05-12T08:16:18.897Z,954.0430
2023-05-12T08:17:20.445Z,954.0523
2023-05-12T08:18:21.929Z,954.0400
2023-05-12T08:19:23.376Z,954.0408
2023-05-12T08:20:24.919Z,954.0377
2023-05-12T08:21:26.418Z,954.0554
2023-05-12T08:22:27.942Z,954.0662
2023-05-12T08:23:29.473Z,954.0770
2023-05-12T08:24:30.959Z,954.0700
2023-05-12T08:25:32.477Z,954.0577
2023-05-12T08:26:34.024Z,954.0523
2023-05-12T08:27:35.539Z,954.0692
2023-05-12T08:28:37.054Z,954.0654
2023-05-12T08:29:38.537Z,954.0869
2023-05-12T08:30:40.108Z,954.0792
2023-05-12T08:31:41.640Z,954.0762
2023-05-12T08:32:43.134Z,954.0723
2023-05-12T08:33:44.631Z,954.0739
2023-05-12T08:34:46.136Z,954.0638
2023-05-12T08:35:47.629Z,954.0700
2023-05-12T08:36:49.141Z,954.0700
2023-05-12T08:37:50.691Z,954.0600
2023-05-12T08:38:52.215Z,954.0608
2023-05-12T08:39:53.803Z,954.0515
2023-05-12T08:40:55.224Z,954.0346
2023-05-12T08:41:56.740Z,954.0423
2023-05-12T08:42:59.835Z,954.0361
2023-05-12T08:44:00.600Z,954.0192
2023-05-12T08:45:01.340Z,954.0254
2023-05-12T08:46:02.822Z,954.0492
2023-05-12T08:47:04.334Z,954.0461
2023-05-12T08:48:05.876Z,954.0615
2023-05-12T08:49:07.385Z,954.0770
2023-05-12T08:50:08.952Z,954.0900
2023-05-12T08:51:10.493Z,954.0807
2023-05-12T08:52:12.008Z,954.0708
2023-05-12T08:53:13.538Z,954.0992
2023-05-12T08:54:15.058Z,954.0908
2023-05-12T08:55:16.573Z,954.0961
2023-05-12T08:57:19.730Z,954.0862
2023-05-12T08:58:27.813Z,954.0862
2023-05-12T08:59:22.666Z,954.0770
2023-05-12T09:00:24.285Z,954.0692
2023-05-12T09:01:25.717Z,954.0685
2023-05-12T09:02:29.406Z,954.0685
2023-05-12T09:03:27.237Z,954.0700
2023-05-12T09:04:28.570Z,954.0762
2023-05-12T09:05:29.733Z,954.0808
2023-05-12T09:06:31.184Z,954.0623
2023-05-12T09:07:32.223Z,954.0600
2023-05-12T09:08:33.516Z,954.0530
2023-05-12T09:09:34.747Z,954.0400
2023-05-12T09:10:36.165Z,954.0430
2023-05-12T09:11:37.221Z,954.0369
2023-05-12T09:12:38.489Z,954.0361
2023-05-12T09:13:39.715Z,954.0431
2023-05-12T09:14:40.999Z,954.0385
2023-05-12T09:15:42.263Z,954.0346
2023-05-12T09:16:43.803Z,954.0300
2023-05-12T09:17:45.312Z,954.0369
2023-05-12T09:18:46.836Z,954.0392
2023-05-12T09:19:48.352Z,954.0377
2023-05-12T09:20:49.884Z,954.0369
2023-05-12T09:21:51.399Z,954.0385
2023-05-12T09:22:52.909Z,954.0361
2023-05-12T09:23:54.415Z,954.0316
2023-05-12T09:24:56.019Z,954.0269
2023-05-12T09:25:57.472Z,954.0316
2023-05-12T09:26:59.013Z,954.0361
2023-05-12T09:28:00.512Z,954.0377
2023-05-12T09:29:02.016Z,954.0316
2023-05-12T09:30:03.562Z,954.0300
2023-05-12T09:31:05.083Z,954.0270
2023-05-12T09:32:06.727Z,954.0208
2023-05-12T09:33:08.213Z,954.0092
2023-05-12T09:34:09.618Z,953.9946
2023-05-12T09:35:11.243Z,953.9885
2023-05-12T09:36:12.660Z,953.9830
2023-05-12T09:37:15.433Z,953.9715
2023-05-12T09:38:15.739Z,953.9600
2023-05-12T09:39:17.237Z,953.9523
2023-05-12T09:40:18.758Z,953.9330
2023-05-12T09:41:20.272Z,953.9223
2023-05-12T09:42:21.786Z,953.9054
2023-05-12T09:43:23.305Z,953.8815
2023-05-12T09:44:24.825Z,953.8685
2023-05-12T09:45:26.327Z,953.8585
2023-05-12T09:46:27.870Z,953.8770
2023-05-12T09:47:29.411Z,953.8762
2023-05-12T09:48:30.898Z,953.8554
2023-05-12T09:49:32.397Z,953.8623
2023-05-12T09:50:44.354Z,953.8708
2023-05-12T09:51:35.420Z,953.8792
2023-05-12T09:52:36.966Z,953.8585
2023-05-12T09:53:38.481Z,953.8500
2023-05-12T09:54:39.984Z,953.8461
2023-05-12T09:55:41.508Z,953.8492
2023-05-12T09:56:43.023Z,953.8615
2023-05-12T09:57:44.579Z,953.8477
2023-05-12T09:58:46.079Z,953.8484
2023-05-12T09:59:47.598Z,953.8392
2023-05-12T10:01:50.679Z,953.8277
2023-05-12T10:02:52.204Z,953.8323
2023-05-12T10:03:53.656Z,953.8385
2023-05-12T10:04:55.217Z,953.8246
2023-05-12T10:05:56.838Z,953.8123
2023-05-12T10:06:58.278Z,953.8077
2023-05-12T10:07:59.764Z,953.8246
2023-05-12T10:09:01.353Z,953.8200
2023-05-12T10:10:02.902Z,953.8108
2023-05-12T10:11:04.399Z,953.8308
2023-05-12T10:12:05.928Z,953.8177
2023-05-12T10:13:07.458Z,953.8023
2023-05-12T10:14:08.940Z,953.8023
2023-05-12T10:15:10.482Z,953.8000
2023-05-12T10:16:11.987Z,953.8092
2023-05-12T10:17:13.550Z,953.8038
2023-05-12T10:18:15.081Z,953.7992
2023-05-12T10:19:16.572Z,953.7985
2023-05-12T10:20:18.064Z,953.7839
2023-05-12T10:21:19.583Z,953.7769
2023-05-12T10:22:21.116Z,953.7608
2023-05-12T10:23:22.662Z,953.7508
2023-05-12T10:24:24.187Z,953.7492
2023-05-12T10:25:25.667Z,953.7246
2023-05-12T10:26:27.251Z,953.7192
2023-05-12T10:27:28.773Z,953.7184
2023-05-12T10:28:30.310Z,953.7115
2023-05-12T10:29:31.867Z,953.6985
2023-05-12T10:30:33.356Z,953.7015
2023-05-12T10:31:34.860Z,953.7215
2023-05-12T10:32:36.456Z,953.7377
2023-05-12T10:33:37.916Z,953.7269
2023-05-12T10:34:39.423Z,953.7177
2023-05-12T10:35:40.954Z,953.6977
2023-05-12T10:36:42.493Z,953.6785
2023-05-12T10:37:44.034Z,953.6554
2023-05-12T10:38:45.539Z,953.6392
2023-05-12T10:39:47.066Z,953.6323
2023-05-12T10:40:48.566Z,953.6323
2023-05-12T10:41:51.122Z,953.6031
2023-05-12T10:42:51.695Z,953.6130
2023-05-12T10:43:53.150Z,953.6130
2023-05-12T10:44:54.686Z,953.6061
2023-05-12T10:45:56.297Z,953.6185
2023-05-12T10:46:57.728Z,953.6031
2023-05-12T10:47:59.320Z,953.5969
2023-05-12T10:49:00.777Z,953.6008
2023-05-12T10:50:02.279Z,953.5862
2023-05-12T10:51:03.787Z,953.5739
2023-05-12T10:52:05.349Z,953.5677
2023-05-12T10:53:08.130Z,953.5708
2023-05-12T10:54:08.370Z,953.5723
2023-05-12T10:55:09.961Z,953.5846
2023-05-12T10:56:11.550Z,953.6108
2023-05-12T10:57:14.994Z,953.6146
2023-05-12T10:58:15.520Z,953.6154
2023-05-12T10:59:16.573Z,953.6092
2023-05-12T11:00:17.893Z,953.6185
2023-05-12T11:01:19.457Z,953.6085
2023-05-12T11:02:20.997Z,953.6069
2023-05-12T11:03:23.355Z,953.6130
2023-05-12T11:04:23.750Z,953.6100
2023-05-12T11:05:25.435Z,953.6115
2023-05-12T11:06:27.149Z,953.6192
2023-05-12T11:07:28.424Z,953.6200
2023-05-12T11:08:30.524Z,953.6270
2023-05-12T11:09:31.318Z,953.6377
2023-05-12T11:10:33.798Z,953.6554
2023-05-12T11:11:34.409Z,953.6516
2023-05-12T11:12:35.890Z,953.6454
2023-05-12T11:13:37.306Z,953.6192
2023-05-12T11:14:38.801Z,953.6169
2023-05-12T11:15:40.336Z,953.6061
2023-05-12T11:16:42.016Z,953.6177
2023-05-12T11:17:43.396Z,953.6138
2023-05-12T11:18:44.914Z,953.6061
2023-05-12T11:19:46.426Z,953.6146
2023-05-12T11:20:47.936Z,953.6185
2023-05-12T11:21:49.435Z,953.6308
2023-05-12T11:22:50.976Z,953.6331
2023-05-12T11:23:52.494Z,953.6285
2023-05-12T11:24:54.110Z,953.6169
2023-05-12T11:25:55.576Z,953.6123
2023-05-12T11:26:57.041Z,953.5961
2023-05-12T11:27:58.557Z,953.5977
2023-05-12T11:29:00.131Z,953.6038
2023-05-12T11:30:01.616Z,953.5946
2023-05-12T11:31:03.198Z,953.6100
2023-05-12T11:32:04.691Z,953.6215
2023-05-12T11:33:06.232Z,953.6508
2023-05-12T11:34:12.500Z,953.6554
2023-05-12T11:35:09.338Z,953.6539
2023-05-12T11:36:10.748Z,953.6454
2023-05-12T11:37:12.272Z,953.6339
2023-05-12T11:38:13.755Z,953.6285
2023-05-12T11:39:15.271Z,953.6262
2023-05-12T11:40:16.793Z,953.6246
2023-05-12T11:41:18.344Z,953.6292
2023-05-12T11:42:21.567Z,953.6230
2023-05-12T11:43:21.386Z,953.6138
2023-05-12T11:44:22.894Z,953.6161
2023-05-12T11:45:24.435Z,953.6093
2023-05-12T11:46:25.992Z,953.5992
2023-05-12T11:47:27.479Z,953.5823
2023-05-12T11:48:28.994Z,953.5662
2023-05-12T11:49:30.543Z,953.5800
2023-05-12T11:50:32.014Z,953.5961
2023-05-12T11:51:33.573Z,953.5900
2023-05-12T11:52:35.085Z,953.5900
2023-05-12T11:53:36.583Z,953.6030
2023-05-12T11:54:38.150Z,953.5938
2023-05-12T11:55:39.654Z,953.5538
2023-05-12T11:56:41.150Z,953.5192
2023-05-12T11:57:42.669Z,953.5085
2023-05-12T11:58:44.208Z,953.5070
2023-05-12T11:59:45.721Z,953.5385
2023-05-12T12:00:47.253Z,953.5208
2023-05-12T12:01:48.797Z,953.5269
2023-05-12T12:02:50.358Z,953.5046
2023-05-12T12:03:51.843Z,953.4946
2023-05-12T12:04:53.401Z,953.4753
2023-05-12T12:05:54.875Z,953.4861
2023-05-12T12:06:56.425Z,953.4830
2023-05-12T12:07:57.890Z,953.4885
2023-05-12T12:08:59.408Z,953.4808
2023-05-12T12:10:00.990Z,953.4646
2023-05-12T12:11:03.846Z,953.4723
2023-05-12T12:12:03.979Z,953.4531
2023-05-12T12:13:05.535Z,953.4392
2023-05-12T12:14:07.012Z,953.4269
2023-05-12T12:15:08.533Z,953.4438
2023-05-12T12:16:10.436Z,953.4231
2023-05-12T12:17:11.636Z,953.4400
2023-05-12T12:18:13.153Z,953.4515
2023-05-12T12:19:14.666Z,953.4562
2023-05-12T12:20:16.117Z,953.4577
2023-05-12T12:21:18.932Z,953.4370
2023-05-12T12:22:19.180Z,953.4177
2023-05-12T12:23:20.720Z,953.4169
2023-05-12T12:24:22.192Z,953.3862
2023-05-12T12:25:23.711Z,953.3738
2023-05-12T12:26:25.273Z,953.3762
2023-05-12T12:27:26.773Z,953.3615
2023-05-12T12:28:28.272Z,953.3708
2023-05-12T12:29:29.836Z,953.3939
2023-05-12T12:30:31.494Z,953.3915
2023-05-12T12:31:32.847Z,953.3954
2023-05-12T12:32:34.388Z,953.3723
2023-05-12T12:33:35.934Z,953.3515
2023-05-12T12:34:37.388Z,953.3685
2023-05-12T12:35:38.916Z,953.3723
2023-05-12T12:36:40.443Z,953.3239
2023-05-12T12:37:41.953Z,953.3461
2023-05-12T12:38:43.475Z,953.3423
2023-05-12T12:39:45.682Z,953.3123
2023-05-12T12:40:46.558Z,953.3085
2023-05-12T12:41:48.705Z,953.2953
2023-05-12T12:42:49.577Z,953.2877
2023-05-12T12:43:51.097Z,953.2662
2023-05-12T12:44:52.594Z,953.2623
2023-05-12T12:45:54.128Z,953.2646
2023-05-12T12:46:55.726Z,953.2677
2023-05-12T12:47:57.194Z,953.2592
2023-05-12T12:48:58.690Z,953.2523
2023-05-12T12:50:00.223Z,953.2400
2023-05-12T12:51:01.720Z,953.2677
2023-05-12T12:52:03.260Z,953.2485
2023-05-12T12:53:04.765Z,953.2385
2023-05-12T12:54:06.264Z,953.2208
2023-05-12T12:55:07.767Z,953.2385
2023-05-12T12:56:09.309Z,953.2315
2023-05-12T12:57:10.820Z,953.2308
2023-05-12T12:58:12.321Z,953.2231
2023-05-12T12:59:13.920Z,953.2261
2023-05-12T13:00:15.365Z,953.2277
2023-05-12T13:01:16.919Z,953.2430
2023-05-12T13:02:18.451Z,953.2377
2023-05-12T13:03:20.555Z,953.2570
2023-05-12T13:04:21.436Z,953.2523
2023-05-12T13:05:23.256Z,953.2508
2023-05-12T13:06:24.497Z,953.2646
2023-05-12T13:07:25.997Z,953.2485
2023-05-12T13:08:27.505Z,953.2330
2023-05-12T13:09:29.059Z,953.2546
2023-05-12T13:10:30.560Z,953.2454
2023-05-12T13:11:32.065Z,953.2492
2023-05-12T13:12:33.630Z,953.2500
2023-05-12T13:13:35.110Z,953.2600
2023-05-12T13:14:36.629Z,953.2631
2023-05-12T13:15:38.192Z,953.2762
2023-05-12T13:16:39.704Z,953.2961
2023-05-12T13:17:41.194Z,953.3192
2023-05-12T13:18:42.782Z,953.3008
2023-05-12T13:19:44.208Z,953.2662
2023-05-12T13:20:45.755Z,953.2608
2023-05-12T13:21:47.282Z,953.2639
2023-05-12T13:22:48.793Z,953.2408
2023-05-12T13:23:50.290Z,953.2261
2023-05-12T13:24:51.842Z,953.2246
2023-05-12T13:25:53.349Z,953.2054
2023-05-12T13:26:54.907Z,953.2361
2023-05-12T13:27:56.397Z,953.2546
2023-05-12T13:28:57.903Z,953.2462
2023-05-12T13:29:59.447Z,953.2300
2023-05-12T13:31:01.013Z,953.2200
2023-05-12T13:32:02.464Z,953.1938
2023-05-12T13:33:05.895Z,953.1761
2023-05-12T13:34:05.525Z,953.1692
2023-05-12T13:35:07.017Z,953.1608
2023-05-12T13:36:08.565Z,953.1392
2023-05-12T13:37:10.499Z,953.1346
2023-05-12T13:38:11.727Z,953.1492
2023-05-12T13:39:13.154Z,953.1346
2023-05-12T13:40:14.638Z,953.1308
2023-05-12T13:41:16.195Z,953.1377
2023-05-12T13:42:17.694Z,953.1362
2023-05-12T13:43:19.205Z,953.1230
2023-05-12T13:44:20.737Z,953.1407
2023-05-12T13:45:22.520Z,953.1369
2023-05-12T13:46:23.812Z,953.1185
2023-05-12T13:47:25.295Z,953.1061
2023-05-12T13:48:26.808Z,953.0977
2023-05-12T13:49:28.365Z,953.0931
2023-05-12T13:50:31.395Z,953.0746
2023-05-12T13:51:32.700Z,953.0854
2023-05-12T13:52:33.912Z,953.0723
2023-05-12T13:53:35.178Z,953.0608
2023-05-12T13:54:36.384Z,953.0308
2023-05-12T13:55:39.974Z,953.0247
2023-05-12T13:56:39.024Z,952.9854
2023-05-12T13:57:40.554Z,952.9631
2023-05-12T13:58:42.064Z,952.9684
2023-05-12T13:59:43.560Z,952.9938
2023-05-12T14:00:45.111Z,953.0170
2023-05-12T14:01:46.741Z,952.9669
2023-05-12T14:02:48.170Z,952.9646
2023-05-12T14:03:49.684Z,952.9639
2023-05-12T14:04:51.227Z,953.0139
2023-05-12T14:05:52.697Z,952.9838
2023-05-12T14:06:54.221Z,952.9723
2023-05-12T14:07:55.786Z,952.9462
2023-05-12T14:08:57.277Z,952.9354
2023-05-12T14:09:58.824Z,952.9392
2023-05-12T14:11:00.314Z,952.9485
2023-05-12T14:12:01.861Z,952.9077
2023-05-12T14:13:03.379Z,952.9193
2023-05-12T14:14:04.924Z,952.9261
2023-05-12T14:15:23.587Z,952.9392
2023-05-12T14:16:08.006Z,952.9330
2023-05-12T14:17:09.450Z,952.9608
2023-05-12T14:18:10.973Z,952.9523
2023-05-12T14:19:12.537Z,952.9462
2023-05-12T14:20:14.024Z,952.9400
2023-05-12T14:21:15.529Z,952.9123
2023-05-12T14:22:25.648Z,952.8947
2023-05-12T14:23:20.811Z,952.9108
2023-05-12T14:24:22.080Z,952.9208
2023-05-12T14:25:23.436Z,952.9277
2023-05-12T14:26:24.544Z,952.9153
2023-05-12T14:27:25.810Z,952.9246
2023-05-12T14:28:27.099Z,952.9500
2023-05-12T14:29:28.288Z,952.9485
2023-05-12T14:30:29.601Z,952.9585
2023-05-12T14:31:30.869Z,952.9608
2023-05-12T14:32:32.357Z,952.9362
